createdAt,value
2023-03-20T00:02:22.762Z,100040.53
2023-03-20T00:04:50.114Z,100056.53
2023-03-20T00:07:17.135Z,100049.53
2023-03-20T00:09:44.063Z,100051.19
2023-03-20T00:12:17.980Z,100054.88
2023-03-20T00:14:45.231Z,100057.38
2023-03-20T00:17:20.006Z,100057.53
2023-03-20T00:19:47.115Z,100058.38
2023-03-20T00:22:14.165Z,100060.22
2023-03-20T00:24:41.414Z,100061.88
2023-03-20T00:27:14.125Z,100060.06
2023-03-20T00:29:41.237Z,100061.88
2023-03-20T00:32:15.483Z,100056.53
2023-03-20T00:34:42.515Z,100051.19
2023-03-20T00:37:11.607Z,100055.69
2023-03-20T00:39:38.734Z,100060.59
2023-03-20T00:42:07.655Z,100056.09
2023-03-20T00:44:44.338Z,100056.91
2023-03-20T00:47:20.568Z,100048.63
2023-03-20T00:49:50.730Z,100057.28
2023-03-20T00:52:19.752Z,100057.28
2023-03-20T00:54:47.146Z,100060.94
2023-03-20T00:57:42.731Z,100053.97
2023-03-20T01:00:43.644Z,100054.97
2023-03-20T01:03:17.987Z,100056.00
2023-03-20T01:05:49.647Z,100057.66
2023-03-20T01:08:20.727Z,100056.00
2023-03-20T01:10:56.341Z,100048.19
2023-03-20T01:13:30.225Z,100050.66
2023-03-20T01:15:58.200Z,100048.19
2023-03-20T01:18:26.889Z,100052.69
2023-03-20T01:20:53.864Z,100049.84
2023-03-20T01:23:23.037Z,100053.88
2023-03-20T01:25:50.700Z,100050.38
2023-03-20T01:28:23.721Z,100053.03
2023-03-20T01:30:50.941Z,100059.38
2023-03-20T01:33:24.079Z,100050.75
2023-03-20T01:35:55.131Z,100052.59
2023-03-20T01:38:25.730Z,100057.75
2023-03-20T01:41:11.902Z,100056.09
2023-03-20T01:43:40.464Z,100063.06
2023-03-20T01:46:11.942Z,100067.59
2023-03-20T01:48:52.047Z,100066.09
2023-03-20T01:51:23.086Z,100073.09
2023-03-20T01:53:59.294Z,100073.09
2023-03-20T01:56:29.436Z,100068.75
2023-03-20T01:59:05.572Z,100071.63
2023-03-20T02:01:35.743Z,100073.47
2023-03-20T02:04:03.228Z,100078.78
2023-03-20T02:06:57.207Z,100084.50
2023-03-20T02:09:32.542Z,100084.50
2023-03-20T02:12:01.278Z,100080.81
2023-03-20T02:14:29.517Z,100084.50
2023-03-20T02:17:08.997Z,100081.16
2023-03-20T02:20:09.826Z,100079.50
2023-03-20T02:23:25.554Z,100079.91
2023-03-20T02:26:35.999Z,100070.59
2023-03-20T02:29:28.450Z,100074.09
2023-03-20T02:32:11.792Z,100071.59
2023-03-20T02:35:38.275Z,100068.94
2023-03-20T02:38:30.709Z,100074.91
2023-03-20T02:41:24.861Z,100080.63
2023-03-20T02:44:12.357Z,100090.25
2023-03-20T02:46:54.608Z,100081.44
2023-03-20T02:49:53.004Z,100091.28
2023-03-20T02:53:06.601Z,100088.63
2023-03-20T02:55:51.376Z,100082.25
2023-03-20T02:58:29.634Z,100082.25
2023-03-20T03:01:16.136Z,100083.09
2023-03-20T03:04:17.795Z,100077.94
2023-03-20T03:06:50.002Z,100074.28
2023-03-20T03:09:32.855Z,100074.28
2023-03-20T03:12:20.596Z,100088.44
2023-03-20T03:15:01.811Z,100078.59
2023-03-20T03:17:34.504Z,100091.72
2023-03-20T03:20:37.113Z,100090.25
2023-03-20T03:23:05.425Z,100090.91
2023-03-20T03:25:41.173Z,100084.75
2023-03-20T03:28:19.667Z,100091.72
2023-03-20T03:30:46.737Z,100096.91
2023-03-20T03:33:27.401Z,100093.56
2023-03-20T03:36:16.506Z,100088.25
2023-03-20T03:39:01.977Z,100088.91
2023-03-20T03:41:59.489Z,100085.56
2023-03-20T03:45:04.457Z,100088.25
2023-03-20T03:47:58.371Z,100085.56
2023-03-20T03:50:33.775Z,100078.41
2023-03-20T03:53:09.323Z,100086.41
2023-03-20T03:55:42.780Z,100082.91
2023-03-20T03:58:41.684Z,100079.41
2023-03-20T04:01:12.286Z,100078.59
2023-03-20T04:03:47.049Z,100077.75
2023-03-20T04:06:16.130Z,100081.25
2023-03-20T04:08:43.816Z,100083.91
2023-03-20T04:11:18.385Z,100084.28
2023-03-20T04:13:50.946Z,100091.28
2023-03-20T04:16:21.199Z,100094.97
2023-03-20T04:18:49.123Z,100099.28
2023-03-20T04:21:16.814Z,100100.09
2023-03-20T04:23:44.725Z,100107.28
2023-03-20T04:26:11.985Z,100108.09
2023-03-20T04:28:39.000Z,100108.94
2023-03-20T04:31:37.217Z,100113.44
2023-03-20T04:34:13.051Z,100123.09
2023-03-20T04:36:57.928Z,100119.59
2023-03-20T04:39:33.531Z,100120.41
2023-03-20T04:42:02.909Z,100119.59
2023-03-20T04:44:30.202Z,100128.22
2023-03-20T04:46:57.758Z,100125.75
2023-03-20T04:49:25.084Z,100120.41
2023-03-20T04:51:52.268Z,100122.91
2023-03-20T04:54:29.445Z,100111.22
2023-03-20T04:56:56.757Z,100107.72
2023-03-20T04:59:24.043Z,100108.56
2023-03-20T05:01:51.188Z,100106.06
2023-03-20T05:04:18.351Z,100109.75
2023-03-20T05:06:49.006Z,100108.09
2023-03-20T05:09:17.661Z,100115.28
2023-03-20T05:11:45.613Z,100118.94
2023-03-20T05:14:32.532Z,100119.97
2023-03-20T05:17:19.601Z,100126.13
2023-03-20T05:20:12.036Z,100127.97
2023-03-20T05:23:11.281Z,100128.94
2023-03-20T05:25:49.065Z,100128.94
2023-03-20T05:28:27.954Z,100124.44
2023-03-20T05:31:08.848Z,100124.63
2023-03-20T05:33:54.633Z,100132.63
2023-03-20T05:36:28.621Z,100131.63
2023-03-20T05:39:14.509Z,100131.81
2023-03-20T05:42:01.498Z,100136.31
2023-03-20T05:44:49.549Z,100141.63
2023-03-20T05:47:35.341Z,100141.63
2023-03-20T05:50:34.549Z,100140.81
2023-03-20T05:53:21.800Z,100141.63
2023-03-20T05:56:19.930Z,100134.66
2023-03-20T05:59:22.113Z,100130.97
2023-03-20T06:02:01.954Z,100130.97
2023-03-20T06:04:32.404Z,100132.63
2023-03-20T06:07:17.718Z,100133.47
2023-03-20T06:09:53.120Z,100130.63
2023-03-20T06:12:20.466Z,100118.13
2023-03-20T06:14:47.625Z,100127.59
2023-03-20T06:17:14.862Z,100130.25
2023-03-20T06:19:42.862Z,100130.75
2023-03-20T06:22:09.833Z,100132.41
2023-03-20T06:24:38.104Z,100140.19
2023-03-20T06:27:05.873Z,100146.19
2023-03-20T06:29:33.034Z,100159.50
2023-03-20T06:32:12.325Z,100160.19
2023-03-20T06:34:39.553Z,100164.50
2023-03-20T06:37:06.524Z,100171.47
2023-03-20T06:39:33.661Z,100168.00
2023-03-20T06:42:01.026Z,100173.97
2023-03-20T06:44:28.557Z,100169.66
2023-03-20T06:47:16.283Z,100166.16
2023-03-20T06:49:45.949Z,100174.16
2023-03-20T06:52:19.364Z,100172.66
2023-03-20T06:54:56.689Z,100179.47
2023-03-20T06:57:24.214Z,100181.13
2023-03-20T06:59:51.205Z,100180.13
2023-03-20T07:02:18.246Z,100181.78
2023-03-20T07:04:45.436Z,100184.28
2023-03-20T07:07:12.657Z,100186.78
2023-03-20T07:09:40.476Z,100182.91
2023-03-20T07:12:15.799Z,100190.06
2023-03-20T07:14:43.867Z,100188.03
2023-03-20T07:17:15.348Z,100193.38
2023-03-20T07:19:42.576Z,100197.53
2023-03-20T07:22:20.826Z,100185.38
2023-03-20T07:24:47.836Z,100191.38
2023-03-20T07:27:14.976Z,100188.03
2023-03-20T07:29:42.332Z,100186.06
2023-03-20T07:32:13.549Z,100193.22
2023-03-20T07:34:48.326Z,100197.53
2023-03-20T07:37:15.782Z,100189.53
2023-03-20T07:39:48.056Z,100189.72
2023-03-20T07:42:32.625Z,100186.41
2023-03-20T07:45:09.328Z,100188.88
2023-03-20T07:47:36.552Z,100186.06
2023-03-20T07:50:08.233Z,100186.69
2023-03-20T07:52:35.465Z,100185.69
2023-03-20T07:55:02.436Z,100182.81
2023-03-20T07:57:29.358Z,100185.16
2023-03-20T07:59:57.476Z,100195.25
2023-03-20T08:02:24.404Z,100186.72
2023-03-20T08:04:51.606Z,100188.22
2023-03-20T08:07:18.557Z,100192.16
2023-03-20T08:09:45.579Z,100197.13
2023-03-20T08:12:12.504Z,100195.09
2023-03-20T08:14:39.753Z,100200.06
2023-03-20T08:17:15.089Z,100197.41
2023-03-20T08:19:43.538Z,100198.06
2023-03-20T08:22:11.003Z,100202.38
2023-03-20T08:24:38.015Z,100204.03
2023-03-20T08:27:05.042Z,100205.06
2023-03-20T08:29:32.002Z,100210.22
2023-03-20T08:31:59.006Z,100217.03
2023-03-20T08:34:26.356Z,100220.06
2023-03-20T08:36:53.335Z,100214.91
2023-03-20T08:39:20.476Z,100225.41
2023-03-20T08:41:47.409Z,100220.25
2023-03-20T08:44:14.794Z,100223.09
2023-03-20T08:46:43.677Z,100220.44
2023-03-20T08:49:10.691Z,100217.75
2023-03-20T08:51:37.628Z,100220.44
2023-03-20T08:54:04.936Z,100223.94
2023-03-20T08:56:31.920Z,100234.59
2023-03-20T08:58:58.856Z,100229.25
2023-03-20T09:01:35.350Z,100222.09
2023-03-20T09:04:09.027Z,100229.25
2023-03-20T09:06:40.959Z,100235.59
2023-03-20T09:09:08.282Z,100230.72
2023-03-20T09:11:35.338Z,100244.06
2023-03-20T09:14:02.290Z,100249.41
2023-03-20T09:16:29.334Z,100248.22
2023-03-20T09:18:56.380Z,100254.25
2023-03-20T09:21:23.338Z,100248.22
2023-03-20T09:23:50.318Z,100258.88
2023-03-20T09:26:17.258Z,100248.22
2023-03-20T09:28:44.162Z,100253.53
2023-03-20T09:31:11.992Z,100254.25
2023-03-20T09:33:39.067Z,100260.59
2023-03-20T09:36:08.317Z,100262.91
2023-03-20T09:38:35.312Z,100269.25
2023-03-20T09:41:05.051Z,100270.91
2023-03-20T09:43:53.258Z,100281.94
2023-03-20T09:46:25.702Z,100274.59
2023-03-20T09:49:17.565Z,100278.28
2023-03-20T09:52:00.533Z,100283.22
2023-03-20T09:54:54.142Z,100278.44
2023-03-20T09:57:28.368Z,100286.44
2023-03-20T10:00:07.414Z,100270.91
2023-03-20T10:02:45.325Z,100279.09
2023-03-20T10:05:25.615Z,100276.44
2023-03-20T10:07:56.719Z,100271.72
2023-03-20T10:10:51.588Z,100266.03
2023-03-20T10:13:24.210Z,100268.97
2023-03-20T10:16:08.544Z,100275.91
2023-03-20T10:18:40.931Z,100278.84
2023-03-20T10:21:23.493Z,100273.97
2023-03-20T10:24:15.750Z,100273.06
2023-03-20T10:26:43.023Z,100279.53
2023-03-20T10:29:39.803Z,100274.63
2023-03-20T10:32:27.619Z,100267.56
2023-03-20T10:35:37.354Z,100273.44
2023-03-20T10:38:16.344Z,100270.22
2023-03-20T10:40:44.056Z,100269.63
2023-03-20T10:43:21.496Z,100264.97
2023-03-20T10:45:56.805Z,100259.88
2023-03-20T10:48:29.372Z,100258.97
2023-03-20T10:51:01.956Z,100259.88
2023-03-20T10:53:49.207Z,100256.44
2023-03-20T10:56:31.322Z,100256.97
2023-03-20T10:59:13.895Z,100248.81
2023-03-20T11:01:41.420Z,100252.59
2023-03-20T11:04:08.429Z,100242.97
2023-03-20T11:06:53.038Z,100243.69
2023-03-20T11:09:26.653Z,100246.88
2023-03-20T11:11:58.332Z,100248.22
2023-03-20T11:14:35.368Z,100238.84
2023-03-20T11:17:06.278Z,100251.72
2023-03-20T11:19:35.570Z,100246.84
2023-03-20T11:22:28.727Z,100244.06
2023-03-20T11:25:01.730Z,100257.28
2023-03-20T11:27:34.509Z,100252.16
2023-03-20T11:30:07.385Z,100245.81
2023-03-20T11:33:03.362Z,100245.03
2023-03-20T11:35:32.357Z,100245.03
2023-03-20T11:38:21.540Z,100233.91
2023-03-20T11:40:52.514Z,100239.25
2023-03-20T11:43:27.024Z,100238.84
2023-03-20T11:46:04.356Z,100227.75
2023-03-20T11:48:45.473Z,100228.22
2023-03-20T11:51:20.028Z,100230.75
2023-03-20T11:53:49.857Z,100225.03
2023-03-20T11:56:26.464Z,100230.91
2023-03-20T11:59:19.573Z,100223.09
2023-03-20T12:01:53.108Z,100215.34
2023-03-20T12:04:41.839Z,100211.66
2023-03-20T12:07:25.540Z,100212.47
2023-03-20T12:09:59.912Z,100207.13
2023-03-20T12:12:48.911Z,100210.47
2023-03-20T12:15:31.308Z,100211.28
2023-03-20T12:18:52.690Z,100206.53
2023-03-20T12:21:48.345Z,100198.28
2023-03-20T12:24:29.767Z,100197.25
2023-03-20T12:27:37.865Z,100190.66
2023-03-20T12:30:30.123Z,100186.94
2023-03-20T12:33:12.928Z,100181.56
2023-03-20T12:35:46.193Z,100189.00
2023-03-20T12:38:30.436Z,100181.34
2023-03-20T12:41:29.040Z,100173.91
2023-03-20T12:44:16.939Z,100176.22
2023-03-20T12:46:57.459Z,100167.94
2023-03-20T12:49:59.748Z,100162.16
2023-03-20T12:52:41.597Z,100159.28
2023-03-20T12:55:16.494Z,100157.19
2023-03-20T12:58:04.754Z,100154.31
2023-03-20T13:01:05.672Z,100158.63
2023-03-20T13:03:59.835Z,100154.72
2023-03-20T13:07:01.319Z,100153.09
2023-03-20T13:10:12.824Z,100152.66
2023-03-20T13:13:14.876Z,100149.56
2023-03-20T13:16:16.635Z,100149.13
2023-03-20T13:19:16.065Z,100143.50
2023-03-20T13:22:23.230Z,100140.19
2023-03-20T13:25:00.705Z,100130.06
2023-03-20T13:27:53.361Z,100137.09
2023-03-20T13:30:57.910Z,100124.47
2023-03-20T13:33:36.985Z,100138.13
2023-03-20T13:36:18.338Z,100127.38
2023-03-20T13:39:01.011Z,100126.56
2023-03-20T13:41:28.547Z,100118.28
2023-03-20T13:44:01.684Z,100127.56
2023-03-20T13:46:41.490Z,100117.03
2023-03-20T13:49:37.809Z,100118.25
2023-03-20T13:52:17.660Z,100123.41
2023-03-20T13:55:00.413Z,100110.09
2023-03-20T13:58:03.747Z,100113.34
2023-03-20T14:00:47.045Z,100102.34
2023-03-20T14:03:40.274Z,100106.00
2023-03-20T14:06:39.499Z,100093.59
2023-03-20T14:09:25.842Z,100090.28
2023-03-20T14:12:09.777Z,100094.66
2023-03-20T14:14:57.361Z,100086.00
2023-03-20T14:17:30.719Z,100083.56
2023-03-20T14:20:10.456Z,100086.28
2023-03-20T14:22:40.921Z,100092.28
2023-03-20T14:25:20.745Z,100083.84
2023-03-20T14:28:00.390Z,100079.69
2023-03-20T14:30:30.197Z,100081.38
2023-03-20T14:33:06.647Z,100090.09
2023-03-20T14:35:59.044Z,100101.28
2023-03-20T14:38:44.927Z,100090.53
2023-03-20T14:41:34.013Z,100088.06
2023-03-20T14:44:46.377Z,100088.91
2023-03-20T14:47:53.198Z,100085.63
2023-03-20T14:50:46.090Z,100083.97
2023-03-20T14:53:23.502Z,100084.59
2023-03-20T14:55:57.731Z,100085.03
2023-03-20T14:58:43.404Z,100076.75
2023-03-20T15:01:21.531Z,100084.59
2023-03-20T15:03:52.710Z,100089.13
2023-03-20T15:06:22.469Z,100083.31
2023-03-20T15:08:56.579Z,100079.59
2023-03-20T15:11:25.233Z,100078.38
2023-03-20T15:13:53.866Z,100089.91
2023-03-20T15:16:34.183Z,100080.19
2023-03-20T15:19:01.512Z,100086.75
2023-03-20T15:21:37.922Z,100090.06
2023-03-20T15:24:05.457Z,100084.69
2023-03-20T15:26:35.782Z,100090.06
2023-03-20T15:29:13.299Z,100092.34
2023-03-20T15:31:41.195Z,100093.19
2023-03-20T15:34:32.302Z,100090.72
2023-03-20T15:37:02.414Z,100093.03
2023-03-20T15:39:41.343Z,100096.56
2023-03-20T15:42:15.847Z,100101.09
2023-03-20T15:44:47.997Z,100097.59
2023-03-20T15:47:22.255Z,100095.78
2023-03-20T15:49:53.004Z,100095.56
2023-03-20T15:52:41.738Z,100094.56
2023-03-20T15:55:20.983Z,100092.50
2023-03-20T15:57:50.371Z,100086.72
2023-03-20T16:00:39.729Z,100089.84
2023-03-20T16:03:16.921Z,100095.22
2023-03-20T16:05:47.103Z,100085.13
2023-03-20T16:08:31.646Z,100087.63
2023-03-20T16:11:08.004Z,100086.16
2023-03-20T16:13:40.556Z,100077.94
2023-03-20T16:16:14.379Z,100081.84
2023-03-20T16:18:42.722Z,100076.69
2023-03-20T16:21:29.711Z,100078.97
2023-03-20T16:23:59.645Z,100081.25
2023-03-20T16:26:27.625Z,100069.06
2023-03-20T16:29:02.498Z,100080.19
2023-03-20T16:31:36.173Z,100084.97
2023-03-20T16:34:09.346Z,100088.25
2023-03-20T16:36:38.735Z,100086.22
2023-03-20T16:39:17.320Z,100093.63
2023-03-20T16:41:46.018Z,100087.84
2023-03-20T16:44:25.145Z,100085.56
2023-03-20T16:47:21.239Z,100081.66
2023-03-20T16:49:54.178Z,100083.25
2023-03-20T16:52:29.810Z,100088.00
2023-03-20T16:54:59.064Z,100085.13
2023-03-20T16:57:33.041Z,100090.88
2023-03-20T17:00:08.947Z,100093.38
2023-03-20T17:02:41.029Z,100095.00
2023-03-20T17:05:13.778Z,100091.25
2023-03-20T17:07:42.550Z,100082.38
2023-03-20T17:10:18.529Z,100082.16
2023-03-20T17:12:49.088Z,100096.38
2023-03-20T17:15:19.105Z,100097.16
2023-03-20T17:17:46.358Z,100097.97
2023-03-20T17:20:28.442Z,100100.41
2023-03-20T17:22:55.622Z,100108.25
2023-03-20T17:25:23.193Z,100104.50
2023-03-20T17:27:50.251Z,100103.44
2023-03-20T17:30:22.214Z,100104.84
2023-03-20T17:32:49.651Z,100104.00
2023-03-20T17:35:17.025Z,100114.09
2023-03-20T17:37:44.790Z,100115.50
2023-03-20T17:40:20.201Z,100108.91
2023-03-20T17:42:48.432Z,100112.16
2023-03-20T17:45:20.484Z,100104.72
2023-03-20T17:47:48.449Z,100110.69
2023-03-20T17:50:26.883Z,100116.63
2023-03-20T17:52:54.872Z,100113.69
2023-03-20T17:55:22.386Z,100118.63
2023-03-20T17:57:49.462Z,100114.06
2023-03-20T18:00:24.748Z,100119.16
2023-03-20T18:02:52.017Z,100120.34
2023-03-20T18:05:19.645Z,100121.75
2023-03-20T18:07:46.706Z,100129.16
2023-03-20T18:10:25.656Z,100118.19
2023-03-20T18:12:53.065Z,100129.31
2023-03-20T18:15:20.345Z,100120.00
2023-03-20T18:17:47.655Z,100123.06
2023-03-20T18:20:31.311Z,100125.50
2023-03-20T18:22:59.450Z,100125.03
2023-03-20T18:25:27.396Z,100128.94
2023-03-20T18:27:57.406Z,100118.59
2023-03-20T18:30:46.731Z,100122.91
2023-03-20T18:33:13.727Z,100121.41
2023-03-20T18:35:40.981Z,100118.13
2023-03-20T18:38:14.409Z,100121.16
2023-03-20T18:40:43.651Z,100118.69
2023-03-20T18:43:11.110Z,100113.53
2023-03-20T18:45:41.550Z,100120.94
2023-03-20T18:48:12.458Z,100125.63
2023-03-20T18:50:42.897Z,100122.31
2023-03-20T18:53:11.123Z,100117.16
2023-03-20T18:55:39.009Z,100123.34
2023-03-20T18:58:06.765Z,100118.38
2023-03-20T19:00:40.410Z,100129.44
2023-03-20T19:03:10.713Z,100122.44
2023-03-20T19:05:38.125Z,100113.81
2023-03-20T19:08:05.813Z,100122.00
2023-03-20T19:10:38.036Z,100131.03
2023-03-20T19:13:07.635Z,100126.91
2023-03-20T19:15:37.181Z,100126.25
2023-03-20T19:18:21.903Z,100123.97
2023-03-20T19:20:52.277Z,100122.31
2023-03-20T19:23:21.008Z,100124.34
2023-03-20T19:25:53.794Z,100116.50
2023-03-20T19:28:39.238Z,100124.09
2023-03-20T19:31:10.034Z,100117.09
2023-03-20T19:33:39.045Z,100114.44
2023-03-20T19:36:08.887Z,100111.91
2023-03-20T19:38:37.365Z,100109.44
2023-03-20T19:41:04.910Z,100117.66
2023-03-20T19:43:32.506Z,100115.19
2023-03-20T19:46:00.160Z,100124.22
2023-03-20T19:48:46.895Z,100113.88
2023-03-20T19:51:23.862Z,100116.56
2023-03-20T19:53:51.606Z,100113.88
2023-03-20T19:56:22.766Z,100110.38
2023-03-20T19:58:50.543Z,100110.59
2023-03-20T20:01:25.177Z,100114.28
2023-03-20T20:03:58.346Z,100115.94
2023-03-20T20:06:31.350Z,100124.97
2023-03-20T20:08:59.619Z,100112.63
2023-03-20T20:11:27.101Z,100105.59
2023-03-20T20:14:13.411Z,100110.94
2023-03-20T20:16:46.036Z,100111.97
2023-03-20T20:19:13.595Z,100107.84
2023-03-20T20:24:28.215Z,100111.34
2023-03-20T20:27:15.226Z,100108.84
2023-03-20T20:29:47.475Z,100113.38
2023-03-20T20:32:16.109Z,100117.91
2023-03-20T20:40:20.574Z,100100.19
2023-03-20T20:42:51.387Z,100100.19
2023-03-20T20:45:21.115Z,100095.66
2023-03-20T20:47:50.563Z,100098.34
2023-03-20T20:50:24.908Z,100093.00
2023-03-20T20:52:53.835Z,100095.66
2023-03-20T20:55:24.110Z,100095.66
2023-03-20T20:57:55.413Z,100099.34
2023-03-20T21:00:37.235Z,100101.00
2023-03-20T21:03:09.210Z,100098.53
2023-03-20T21:05:38.662Z,100099.56
2023-03-20T21:08:07.260Z,100106.75
2023-03-20T21:10:34.531Z,100103.44
2023-03-20T21:13:01.712Z,100102.63
2023-03-20T21:15:28.925Z,100101.78
2023-03-20T21:18:03.388Z,100099.13
2023-03-20T21:20:32.334Z,100098.47
2023-03-20T21:23:00.336Z,100100.31
2023-03-20T21:25:39.770Z,100092.28
2023-03-20T21:28:09.915Z,100107.50
2023-03-20T21:30:49.935Z,100108.50
2023-03-20T21:33:26.790Z,100108.50
2023-03-20T21:35:54.062Z,100105.84
2023-03-20T21:38:58.367Z,100105.84
2023-03-20T21:41:10.732Z,100112.00
2023-03-20T21:43:37.727Z,100110.16
2023-03-20T21:49:49.807Z,100105.84
2023-03-20T21:58:16.831Z,100088.16
2023-03-20T22:02:49.151Z,100102.53
2023-03-20T22:05:50.372Z,100098.03
2023-03-20T22:09:09.666Z,100106.84
2023-03-20T22:14:34.144Z,100107.88
2023-03-20T22:17:25.889Z,100114.03
2023-03-20T22:20:02.891Z,100105.22
2023-03-20T22:28:07.040Z,100102.69
2023-03-20T22:34:16.244Z,100114.78
2023-03-20T22:42:24.184Z,100106.69
2023-03-20T22:47:07.054Z,100103.56
2023-03-20T22:49:34.022Z,100101.06
2023-03-20T22:52:24.493Z,100099.44
2023-03-20T22:54:48.007Z,100096.13
2023-03-20T22:57:15.248Z,100105.13
2023-03-20T22:59:42.242Z,100098.13
2023-03-20T23:02:09.184Z,100092.78
2023-03-20T23:04:54.878Z,100088.47
2023-03-20T23:07:40.748Z,100091.16
2023-03-20T23:10:09.653Z,100080.84
2023-03-20T23:12:41.749Z,100078.53
2023-03-20T23:15:10.096Z,100090.88
2023-03-20T23:17:37.073Z,100084.91
2023-03-20T23:20:12.616Z,100083.06
2023-03-20T23:22:41.022Z,100085.72
2023-03-20T23:25:18.525Z,100082.41
2023-03-20T23:27:51.331Z,100079.94
2023-03-20T23:30:19.798Z,100083.59
2023-03-20T23:32:47.088Z,100080.25
2023-03-20T23:35:14.181Z,100086.00
2023-03-20T23:37:41.353Z,100090.66
2023-03-20T23:40:10.652Z,100083.88
2023-03-20T23:42:37.576Z,100077.22
2023-03-20T23:45:19.237Z,100081.28
2023-03-20T23:47:48.181Z,100076.16
2023-03-20T23:50:28.538Z,100073.19
2023-03-20T23:53:09.589Z,100068.41
2023-03-20T23:55:41.223Z,100067.13
2023-03-20T23:58:08.420Z,100065.00
